Time;durP1;ratioP1;P1;durP2;ratioP2;P2;SDS_P1;SDS_P2;PMS_P1;PMS_P2;Temp;Humidity;BMP_temperature;BMP_pressure;BME280_temperature;BME280_humidity;BME280_pressure;Samples;Min_cycle;Max_cycle;Signal;HPM_P1;HPM_P2
2023/01/06 00:02:04;;;;;;;4.95;2.52;;;;;;;13.92;84.61;98668.10;1784192;80;21117;-65
2023/01/06 00:04:30;;;;;;;4.53;2.30;;;;;;;13.72;85.74;98676.66;1764918;81;21186;-64
2023/01/06 00:06:57;;;;;;;3.65;2.33;;;;;;;13.78;85.34;98676.19;1738223;82;21110;-63
2023/01/06 00:09:24;;;;;;;5.15;2.17;;;;;;;13.87;84.37;98683.94;1788676;80;21545;-64
2023/01/06 00:11:50;;;;;;;3.95;2.15;;;;;;;13.76;84.60;98690.03;1788895;80;21350;-63
2023/01/06 00:14:17;;;;;;;2.80;2.12;;;;;;;13.90;84.05;98689.86;1788973;79;21057;-64
2023/01/06 00:16:44;;;;;;;2.70;2.10;;;;;;;13.90;72.52;98692.99;1788910;80;21062;-64
2023/01/06 00:19:10;;;;;;;3.22;2.40;;;;;;;13.89;72.42;98690.80;1788526;80;21670;-64
2023/01/06 00:21:37;;;;;;;2.92;2.10;;;;;;;14.22;71.40;98693.25;1788921;80;21037;-64
2023/01/06 00:24:04;;;;;;;3.45;2.35;;;;;;;14.26;70.86;98692.03;1788775;80;21544;-64
2023/01/06 00:26:30;;;;;;;3.42;2.00;;;;;;;14.24;70.92;98703.22;1788568;80;21052;-64
2023/01/06 00:28:57;;;;;;;3.25;2.33;;;;;;;14.09;71.73;98695.12;1788524;79;21510;-64
2023/01/06 00:31:26;;;;;;;2.67;2.08;;;;;;;14.04;71.56;98702.08;1788809;80;21040;-65
2023/01/06 00:33:56;;;;;;;3.00;2.15;;;;;;;14.36;70.50;98709.42;1788829;80;21096;-63
2023/01/06 00:36:23;;;;;;;3.58;2.22;;;;;;;14.25;70.48;98712.38;1788997;80;21111;-63
2023/01/06 00:38:49;;;;;;;4.70;2.60;;;;;;;14.80;68.72;98717.98;1788301;80;21033;-64
2023/01/06 00:44:01;;;;;;;3.52;2.10;;;;;;;14.45;68.90;98736.05;1748357;82;21047;-65
2023/01/06 00:46:29;;;;;;;2.90;1.47;;;;;;;14.20;69.64;98745.47;1748803;82;21027;-65
2023/01/06 00:48:57;;;;;;;2.22;1.45;;;;;;;14.39;69.15;98758.18;1748357;82;21159;-64
2023/01/06 00:51:24;;;;;;;1.37;1.10;;;;;;;14.24;68.98;98756.17;1748594;82;21034;-64
2023/01/06 00:53:50;;;;;;;1.20;1.10;;;;;;;14.22;68.21;98768.70;1748488;82;21565;-64
2023/01/06 00:56:17;;;;;;;1.32;0.90;;;;;;;13.60;69.34;98775.78;1748157;82;21051;-64
2023/01/06 00:58:44;;;;;;;1.15;0.90;;;;;;;13.35;69.46;98779.80;1748224;82;21121;-64
2023/01/06 01:01:10;;;;;;;1.15;0.85;;;;;;;13.53;68.98;98777.17;1763891;80;21109;-64
2023/01/06 01:03:39;;;;;;;1.10;0.95;;;;;;;13.76;68.56;98783.96;1753083;81;21124;-63
2023/01/06 01:06:07;;;;;;;1.30;1.02;;;;;;;13.23;68.37;98784.95;1753228;81;21781;-63
2023/01/06 01:08:34;;;;;;;1.80;1.00;;;;;;;13.51;66.80;98788.34;1780761;80;21029;-64
2023/01/06 01:11:07;;;;;;;1.25;1.15;;;;;;;13.48;66.10;98804.88;1780805;80;21044;-63
2023/01/06 01:13:33;;;;;;;2.50;1.30;;;;;;;13.38;66.10;98806.01;1780502;80;21159;-64
2023/01/06 01:16:08;;;;;;;1.50;1.30;;;;;;;13.52;65.49;98807.69;1781056;80;21165;-63
2023/01/06 01:18:34;;;;;;;1.65;1.40;;;;;;;13.33;65.56;98812.10;1781182;80;21013;-63
2023/01/06 01:21:01;;;;;;;3.05;1.55;;;;;;;13.21;65.87;98813.28;1780879;80;21014;-63
2023/01/06 01:23:28;;;;;;;1.65;1.45;;;;;;;13.28;65.75;98818.19;1780838;80;21080;-64
2023/01/06 01:25:55;;;;;;;1.65;1.50;;;;;;;13.06;66.59;98827.54;1781047;80;21117;-64
2023/01/06 01:28:22;;;;;;;2.80;1.80;;;;;;;13.39;65.44;98828.88;1780680;79;21251;-63
2023/01/06 01:30:48;;;;;;;1.70;1.47;;;;;;;13.36;64.86;98832.55;1780821;80;21107;-64
2023/01/06 01:33:16;;;;;;;1.85;1.65;;;;;;;13.39;64.99;98843.42;1781146;80;21052;-64
2023/01/06 01:35:43;;;;;;;1.87;1.67;;;;;;;13.50;64.34;98850.10;1780801;80;21041;-64
2023/01/06 01:38:09;;;;;;;2.42;1.70;;;;;;;13.67;63.58;98853.40;1781579;80;21155;-64
2023/01/06 01:40:36;;;;;;;3.45;2.17;;;;;;;13.06;65.19;98863.22;1784237;80;21037;-64
2023/01/06 01:43:03;;;;;;;2.50;2.17;;;;;;;13.04;64.93;98870.40;1784161;80;21064;-64
2023/01/06 01:45:30;;;;;;;2.50;1.87;;;;;;;12.92;65.44;98872.55;1784295;80;21010;-63
2023/01/06 01:48:20;;;;;;;2.83;2.47;;;;;;;13.20;64.46;98884.30;1784347;80;21018;-64
2023/01/06 01:50:51;;;;;;;4.42;2.52;;;;;;;13.10;63.62;98888.50;1784277;80;21048;-64
2023/01/06 01:53:24;;;;;;;2.83;2.50;;;;;;;13.04;63.23;98890.22;1784354;80;21053;-64
2023/01/06 01:55:52;;;;;;;3.55;2.60;;;;;;;13.09;62.84;98897.84;1784095;80;21540;-63
2023/01/06 01:58:23;;;;;;;2.92;2.25;;;;;;;12.79;63.24;98901.12;1784205;80;21143;-65
2023/01/06 02:00:50;;;;;;;3.55;2.10;;;;;;;12.82;63.26;98909.80;1782099;80;21024;-64
2023/01/06 02:03:16;;;;;;;2.90;2.12;;;;;;;13.27;61.54;98915.59;1784071;80;21131;-64
2023/01/06 02:05:51;;;;;;;1.70;1.60;;;;;;;12.70;61.64;98926.81;1784027;80;21364;-63
2023/01/06 02:08:39;;;;;;;2.75;1.55;;;;;;;12.31;62.85;98933.70;1783841;80;21084;-64
2023/01/06 02:11:06;;;;;;;1.87;1.62;;;;;;;12.25;62.53;98945.95;1782728;80;21083;-63
2023/01/06 02:13:35;;;;;;;1.50;1.40;;;;;;;12.25;61.39;98945.95;1784129;80;21532;-63
2023/01/06 02:16:08;;;;;;;1.77;1.50;;;;;;;12.50;61.49;98950.53;1784108;80;21226;-65
2023/01/06 02:18:58;;;;;;;1.85;1.40;;;;;;;12.49;60.69;98959.86;1784172;80;21087;-64
2023/01/06 02:21:36;;;;;;;1.60;1.50;;;;;;;12.22;61.79;98965.95;1784307;80;21037;-64
2023/01/06 02:24:59;;;;;;;1.85;1.40;;;;;;;12.00;62.97;98966.90;1782637;80;21049;-65
2023/01/06 02:27:35;;;;;;;1.62;1.52;;;;;;;11.94;62.66;98972.94;1784539;80;21064;-63
2023/01/06 02:30:30;;;;;;;1.70;1.60;;;;;;;12.35;60.70;98983.17;1784164;79;21217;-64
2023/01/06 02:33:24;;;;;;;2.10;1.90;;;;;;;12.18;60.82;98985.55;1784257;80;21084;-64
2023/01/06 02:36:11;;;;;;;2.08;1.87;;;;;;;11.94;60.80;98999.32;1784198;80;21072;-63
2023/01/06 02:39:15;;;;;;;2.22;2.00;;;;;;;12.16;60.52;99001.95;1783258;80;21544;-64
2023/01/06 02:41:54;;;;;;;2.80;2.58;;;;;;;11.96;60.85;99007.99;1781169;80;21049;-63
2023/01/06 02:44:47;;;;;;;3.33;2.52;;;;;;;12.20;59.70;99017.14;1780827;80;22214;-63
2023/01/06 02:47:37;;;;;;;3.10;2.80;;;;;;;11.96;59.31;99021.19;1781011;80;21045;-63
2023/01/06 02:50:27;;;;;;;3.80;3.30;;;;;;;11.44;60.27;99030.82;1781015;80;21013;-63
2023/01/06 02:53:11;;;;;;;3.42;3.12;;;;;;;11.43;60.29;99037.49;1780938;80;21100;-63
2023/01/06 02:55:44;;;;;;;3.52;3.22;;;;;;;11.38;60.16;99042.19;1781094;80;21088;-63
2023/01/06 02:58:55;;;;;;;4.10;3.70;;;;;;;11.58;59.86;99050.27;1781293;80;21143;-64
2023/01/06 03:01:26;;;;;;;3.65;3.35;;;;;;;11.68;59.47;99054.05;1780798;80;21501;-64
2023/01/06 03:03:53;;;;;;;3.58;3.12;;;;;;;11.81;59.35;99069.55;1781253;80;21638;-64
2023/01/06 03:06:25;;;;;;;5.45;4.35;;;;;;;11.58;59.64;99070.05;1756356;80;21033;-63
2023/01/06 03:08:53;;;;;;;4.78;4.10;;;;;;;11.08;60.58;99083.36;1701679;81;21060;-63
2023/01/06 03:11:20;;;;;;;6.53;4.20;;;;;;;10.91;61.28;99101.91;1754767;81;21297;-63
2023/01/06 03:14:09;;;;;;;4.33;3.80;;;;;;;10.77;61.63;99111.03;1754831;81;21079;-63
2023/01/06 03:16:37;;;;;;;5.45;4.22;;;;;;;10.71;62.53;99110.88;1742406;81;21034;-65
2023/01/06 03:19:04;;;;;;;5.70;5.08;;;;;;;11.52;59.50;99119.53;1754779;81;21025;-63
2023/01/06 03:21:34;;;;;;;5.80;4.45;;;;;;;11.28;60.67;99118.31;1755032;81;21064;-64
2023/01/06 03:24:05;;;;;;;5.75;4.80;;;;;;;11.49;60.18;99118.41;1725345;81;21540;-64
2023/01/06 03:26:31;;;;;;;6.95;5.53;;;;;;;11.74;59.27;99118.33;1755108;81;21065;-63
2023/01/06 03:28:58;;;;;;;6.05;4.87;;;;;;;11.87;59.13;99119.34;1754726;80;21092;-63
2023/01/06 03:31:38;;;;;;;6.40;5.00;;;;;;;11.20;60.10;99121.83;1754789;81;21036;-64
2023/01/06 03:34:56;;;;;;;8.68;5.97;;;;;;;11.29;60.29;99128.74;1754737;81;21547;-63
2023/01/06 03:37:50;;;;;;;6.78;5.47;;;;;;;11.05;60.01;99127.48;1754832;81;21168;-63
2023/01/06 03:40:33;;;;;;;7.45;5.83;;;;;;;10.65;60.77;99134.89;1757974;81;21162;-64
2023/01/06 03:43:15;;;;;;;8.80;6.78;;;;;;;11.03;59.42;99157.86;1758781;81;21061;-65
2023/01/06 03:45:52;;;;;;;8.13;6.00;;;;;;;11.29;59.17;99176.66;1757534;81;21044;-64
2023/01/06 03:49:09;;;;;;;9.73;6.60;;;;;;;11.29;59.17;99176.66;1758767;81;21068;-63
2023/01/06 03:51:52;;;;;;;9.15;6.55;;;;;;;11.02;59.36;99280.00;1758747;81;21161;-63
2023/01/06 03:54:46;;;;;;;;;;;;;;;10.53;60.24;99198.26;1761391;81;21053;-63
2023/01/06 03:57:28;;;;;;;7.75;5.97;;;;;;;10.86;59.13;99206.67;1758899;81;20183;-63
2023/01/06 04:00:08;;;;;;;8.90;6.62;;;;;;;10.52;59.60;99216.31;1758588;81;21656;-63
2023/01/06 04:02:37;;;;;;;9.83;7.05;;;;;;;10.67;59.08;99220.80;1758812;81;21595;-63
2023/01/06 04:05:13;;;;;;;8.58;7.28;;;;;;;10.73;59.83;99220.09;1771693;80;21151;-65
2023/01/06 04:07:41;;;;;;;9.75;7.55;;;;;;;10.41;60.22;99222.59;1819191;78;21056;-64
2023/01/06 04:10:09;;;;;;;10.70;7.65;;;;;;;10.50;59.83;99231.33;1819978;78;21093;-65
2023/01/06 04:12:39;;;;;;;10.65;7.80;;;;;;;10.44;59.95;99236.89;1820599;78;21552;-65
2023/01/06 04:15:12;;;;;;;11.97;8.23;;;;;;;9.97;60.88;99247.98;1820175;78;21060;-65
2023/01/06 04:17:40;;;;;;;9.10;6.78;;;;;;;9.94;61.05;99256.00;1820250;78;21238;-64
2023/01/06 04:20:11;;;;;;;10.65;7.60;;;;;;;9.98;61.28;99262.83;1835921;77;21028;-64
2023/01/06 04:22:39;;;;;;;9.98;8.20;;;;;;;9.94;61.16;99266.52;1820500;78;21239;-64
2023/01/06 04:25:07;;;;;;;11.03;7.20;;;;;;;9.91;61.61;99277.20;1819989;78;21064;-64
2023/01/06 04:27:35;;;;;;;10.43;7.47;;;;;;;9.74;61.62;99281.95;1815610;78;21096;-64
2023/01/06 04:30:03;;;;;;;10.35;7.70;;;;;;;10.01;61.64;99287.22;1787727;79;21190;-65
2023/01/06 04:32:31;;;;;;;13.18;8.15;;;;;;;9.86;63.40;99298.45;1728328;83;21049;-63
2023/01/06 04:34:58;;;;;;;11.10;7.40;;;;;;;9.54;63.00;99305.22;1787511;80;21080;-64
2023/01/06 04:37:26;;;;;;;10.05;7.45;;;;;;;9.75;62.73;99305.53;1728501;82;21075;-64
2023/01/06 04:39:53;;;;;;;13.28;9.38;;;;;;;9.64;62.72;99308.67;1788861;80;21099;-64
2023/01/06 04:42:19;;;;;;;11.88;8.60;;;;;;;9.89;62.13;99314.08;1790030;80;21138;-65
2023/01/06 04:44:46;;;;;;;11.08;7.95;;;;;;;9.79;63.70;99321.55;1790005;80;21520;-64
2023/01/06 04:47:13;;;;;;;11.15;8.30;;;;;;;10.18;61.58;99325.85;1789858;80;21567;-62
2023/01/06 04:49:40;;;;;;;13.03;9.03;;;;;;;10.41;60.29;99335.77;1790090;80;21127;-64
2023/01/06 04:52:07;;;;;;;14.98;9.65;;;;;;;10.41;60.29;99335.77;1790138;80;21092;-64
2023/01/06 04:54:35;;;;;;;11.15;8.68;;;;;;;10.31;60.45;99350.28;1725117;83;21548;-64
2023/01/06 04:57:02;;;;;;;12.50;8.78;;;;;;;10.31;60.45;99350.28;1731360;82;21032;-62
2023/01/06 04:59:30;;;;;;;13.15;9.33;;;;;;;10.05;60.68;99361.56;1731649;82;21123;-64
2023/01/06 05:01:57;;;;;;;12.45;9.05;;;;;;;9.90;61.08;99367.09;1731333;82;22004;-64
2023/01/06 05:04:23;;;;;;;13.28;9.78;;;;;;;9.72;61.93;99375.36;1734745;81;21060;-64
2023/01/06 05:06:50;;;;;;;15.63;10.00;;;;;;;9.71;61.52;99376.30;1755089;81;21122;-65
2023/01/06 05:09:17;;;;;;;12.05;8.45;;;;;;;9.94;61.34;99381.81;1754704;81;21060;-64
2023/01/06 05:11:44;;;;;;;11.48;8.93;;;;;;;10.26;60.38;99392.14;1755019;81;21051;-64
2023/01/06 05:14:12;;;;;;;14.95;10.05;;;;;;;10.06;60.61;99397.02;1754998;80;21093;-64
2023/01/06 05:16:39;;;;;;;12.93;9.30;;;;;;;9.64;61.06;99424.81;1754972;81;21743;-65
2023/01/06 05:19:06;;;;;;;15.90;10.03;;;;;;;9.64;61.06;99424.81;1754673;81;22202;-65
2023/01/06 05:21:32;;;;;;;13.95;9.20;;;;;;;9.84;60.75;99416.86;1724946;83;21059;-65
2023/01/06 05:23:59;;;;;;;13.53;9.25;;;;;;;10.10;60.29;99439.83;1755077;81;21060;-63
2023/01/06 05:26:26;;;;;;;11.25;8.43;;;;;;;9.96;60.15;99442.22;1755113;81;21530;-64
2023/01/06 05:28:53;;;;;;;12.78;8.48;;;;;;;10.04;60.82;99454.57;1754773;80;21088;-63
2023/01/06 05:31:20;;;;;;;15.32;10.48;;;;;;;10.20;60.03;99459.98;1755312;81;21231;-63
2023/01/06 05:33:48;;;;;;;13.13;9.13;;;;;;;10.12;60.12;99460.31;1755142;80;22039;-65
2023/01/06 05:36:16;;;;;;;11.48;8.90;;;;;;;9.93;60.64;99464.25;1754751;81;21048;-63
2023/01/06 05:38:42;;;;;;;14.98;8.45;;;;;;;9.64;61.04;99470.83;1755515;81;21050;-64
2023/01/06 05:41:09;;;;;;;11.60;8.58;;;;;;;9.59;61.68;99468.83;1754964;81;21106;-64
2023/01/06 05:43:36;;;;;;;12.90;9.23;;;;;;;9.56;61.55;99484.28;1755153;81;22002;-64
2023/01/06 05:46:07;;;;;;;12.80;8.48;;;;;;;9.33;61.80;99485.27;1755239;80;21090;-63
2023/01/06 05:48:34;;;;;;;11.45;8.30;;;;;;;9.16;62.43;99490.39;1755167;81;21015;-63
2023/01/06 05:51:04;;;;;;;11.48;7.62;;;;;;;9.21;62.19;99486.63;1755077;81;21047;-64
2023/01/06 05:53:34;;;;;;;12.25;7.33;;;;;;;9.06;62.35;99499.08;1755566;81;21036;-64
2023/01/06 05:56:03;;;;;;;11.75;7.75;;;;;;;9.21;62.24;99501.55;1755479;80;21575;-64
2023/01/06 05:58:32;;;;;;;11.00;7.95;;;;;;;8.86;62.58;99518.28;1755424;81;21139;-65
2023/01/06 06:01:01;;;;;;;11.75;7.70;;;;;;;9.11;62.88;99522.53;1755299;81;20991;-65
2023/01/06 06:03:29;;;;;;;14.10;8.70;;;;;;;9.21;62.37;99529.14;1754981;80;21039;-63
2023/01/06 06:06:05;;;;;;;11.75;7.65;;;;;;;9.25;61.97;99537.30;1775523;80;21094;-64
2023/01/06 06:08:32;;;;;;;11.68;7.08;;;;;;;9.32;62.31;99536.13;1780953;80;21869;-64
2023/01/06 06:11:06;;;;;;;10.72;7.37;;;;;;;9.24;61.96;99542.98;1781104;80;21117;-64
2023/01/06 06:13:33;;;;;;;8.20;6.55;;;;;;;9.52;61.95;99544.94;1780894;80;21047;-64
2023/01/06 06:16:10;;;;;;;8.93;6.03;;;;;;;9.30;62.57;99557.66;1781328;80;21038;-64
2023/01/06 06:18:41;;;;;;;8.03;6.42;;;;;;;9.22;61.95;99566.30;1780995;80;21038;-64
2023/01/06 06:21:05;;;;;;;7.15;6.03;;;;;;;9.29;62.03;99569.07;1780632;80;21095;-64
2023/01/06 06:23:32;;;;;;;8.75;6.30;;;;;;;9.40;60.97;99574.75;1780950;80;21062;-65
2023/01/06 06:25:59;;;;;;;10.38;6.05;;;;;;;9.43;60.84;99576.39;1781236;80;21043;-64
2023/01/06 06:28:25;;;;;;;6.92;5.03;;;;;;;9.16;61.74;99588.90;1781041;79;21050;-64
2023/01/06 06:30:52;;;;;;;8.88;6.40;;;;;;;9.22;61.41;99597.83;1781461;80;21094;-64
2023/01/06 06:33:18;;;;;;;7.55;5.42;;;;;;;9.69;60.09;99609.51;1781024;80;21123;-64
2023/01/06 06:35:44;;;;;;;7.70;5.22;;;;;;;9.96;59.40;99603.98;1781134;80;21531;-64
2023/01/06 06:38:11;;;;;;;6.95;5.60;;;;;;;9.78;59.58;99608.27;1781261;80;21078;-65
2023/01/06 06:40:37;;;;;;;7.60;5.72;;;;;;;9.81;59.81;99628.70;1780920;80;21058;-65
2023/01/06 06:43:03;;;;;;;9.13;5.72;;;;;;;9.44;60.01;99634.16;1781013;80;21055;-65
2023/01/06 06:45:30;;;;;;;7.95;5.30;;;;;;;9.25;60.56;99638.45;1780957;80;21115;-64
2023/01/06 06:47:56;;;;;;;8.30;5.50;;;;;;;8.92;61.91;99642.76;1781399;80;21074;-64
2023/01/06 06:50:22;;;;;;;7.95;5.87;;;;;;;8.89;62.11;99656.02;1781077;80;21075;-65
2023/01/06 06:52:49;;;;;;;7.12;5.00;;;;;;;8.96;61.67;99665.37;1781080;80;21071;-65
2023/01/06 06:55:15;;;;;;;6.15;4.60;;;;;;;9.10;60.46;99675.35;1781105;80;21134;-65
2023/01/06 06:57:42;;;;;;;6.83;5.33;;;;;;;9.25;58.75;99675.23;1781047;80;21550;-65
2023/01/06 07:00:10;;;;;;;7.15;5.08;;;;;;;8.82;59.67;99680.33;1781311;80;21066;-65
2023/01/06 07:02:36;;;;;;;7.50;4.42;;;;;;;8.54;60.30;99689.67;1781121;80;21081;-65
2023/01/06 07:05:04;;;;;;;7.62;4.87;;;;;;;8.83;59.76;99695.63;1781285;80;21034;-65
2023/01/06 07:07:30;;;;;;;6.40;4.50;;;;;;;9.05;59.28;99698.78;1780986;80;21125;-65
2023/01/06 07:09:57;;;;;;;7.08;4.78;;;;;;;9.15;59.29;99708.02;1780893;80;21498;-67
2023/01/06 07:12:24;;;;;;;7.33;4.75;;;;;;;9.51;58.55;99711.00;1780790;80;21113;-65
2023/01/06 07:14:50;;;;;;;6.20;4.47;;;;;;;9.27;58.97;99720.70;1781109;80;21059;-65
2023/01/06 07:17:17;;;;;;;6.30;4.40;;;;;;;9.53;58.78;99729.35;1781271;80;21062;-65
2023/01/06 07:19:44;;;;;;;5.97;4.62;;;;;;;9.52;58.65;99735.51;1781051;80;21585;-65
2023/01/06 07:22:10;;;;;;;5.62;4.35;;;;;;;9.56;58.35;99743.68;1780968;80;21107;-66
2023/01/06 07:24:36;;;;;;;4.78;3.75;;;;;;;9.85;58.37;99754.38;1780788;80;21090;-66
2023/01/06 07:27:03;;;;;;;4.47;3.65;;;;;;;10.33;56.63;99752.44;1780844;80;21051;-66
2023/01/06 07:29:30;;;;;;;5.40;4.10;;;;;;;10.04;56.93;99768.95;1780797;79;21051;-65
2023/01/06 07:31:57;;;;;;;5.42;3.67;;;;;;;10.06;56.20;99767.12;1781178;80;21058;-65
2023/01/06 07:34:25;;;;;;;5.42;3.83;;;;;;;10.25;55.79;99772.00;1781122;80;22905;-64
2023/01/06 07:36:52;;;;;;;5.05;3.52;;;;;;;10.28;55.60;99778.52;1780791;80;21117;-65
2023/01/06 07:39:18;;;;;;;5.00;3.50;;;;;;;10.11;55.34;99783.56;1780906;80;21034;-64
2023/01/06 07:41:45;;;;;;;5.55;4.12;;;;;;;9.75;55.46;99789.82;1780908;80;21566;-65
2023/01/06 07:44:12;;;;;;;5.33;3.77;;;;;;;10.16;55.15;99803.96;1780770;80;21082;-65
2023/01/06 07:46:38;;;;;;;4.80;3.85;;;;;;;9.90;55.04;99810.73;1780749;80;21172;-65
2023/01/06 07:49:04;;;;;;;7.00;4.67;;;;;;;10.06;54.95;99817.11;1780877;80;21042;-65
2023/01/06 07:51:32;;;;;;;5.67;3.90;;;;;;;9.83;55.00;99825.90;1780688;80;21098;-65
2023/01/06 07:53:58;;;;;;;4.78;3.80;;;;;;;10.14;54.07;99829.48;1781110;80;21098;-64
2023/01/06 07:56:25;;;;;;;4.92;3.77;;;;;;;10.19;53.78;99834.13;1780932;80;21054;-65
2023/01/06 07:58:53;;;;;;;5.78;4.45;;;;;;;9.44;54.69;99841.80;1780806;80;21232;-65
2023/01/06 08:01:20;;;;;;;4.90;3.98;;;;;;;9.40;55.03;99838.88;1780805;80;21032;-65
2023/01/06 08:03:47;;;;;;;5.37;4.12;;;;;;;9.71;54.83;99852.22;1780907;80;21562;-64
2023/01/06 08:06:14;;;;;;;5.20;3.72;;;;;;;9.78;54.14;99860.73;1757696;80;21090;-65
2023/01/06 08:08:40;;;;;;;5.70;3.98;;;;;;;9.61;54.97;99869.23;1755099;80;21031;-64
2023/01/06 08:11:09;;;;;;;5.35;3.80;;;;;;;9.71;54.44;99869.73;1754917;81;21650;-64
2023/01/06 08:13:36;;;;;;;5.62;4.05;;;;;;;9.64;54.83;99873.94;1755006;80;21013;-65
2023/01/06 08:16:07;;;;;;;5.40;4.17;;;;;;;9.69;54.47;99882.97;1755026;80;21047;-64
2023/01/06 08:18:34;;;;;;;7.50;4.90;;;;;;;9.52;53.18;99894.55;1755049;81;21042;-65
2023/01/06 08:21:06;;;;;;;7.08;4.72;;;;;;;9.65;53.09;99908.96;1755113;80;21078;-65
2023/01/06 08:23:34;;;;;;;8.83;5.00;;;;;;;9.67;52.83;99921.60;1755089;81;21209;-65
2023/01/06 08:26:12;;;;;;;10.30;5.58;;;;;;;9.50;52.95;99937.11;1754912;80;21070;-64
2023/01/06 08:28:40;;;;;;;7.08;4.83;;;;;;;9.23;53.50;99939.35;1755066;80;21023;-65
2023/01/06 08:31:17;;;;;;;10.80;6.33;;;;;;;9.47;52.85;99950.38;1754984;81;21074;-65
2023/01/06 08:33:44;;;;;;;6.53;4.55;;;;;;;9.64;52.87;99956.76;1754856;81;21058;-64
2023/01/06 08:36:16;;;;;;;6.95;4.55;;;;;;;9.32;54.08;99961.83;1755002;80;21247;-64
2023/01/06 08:38:43;;;;;;;7.62;5.17;;;;;;;9.49;52.87;99962.55;1755278;81;21023;-65
2023/01/06 08:41:11;;;;;;;7.00;4.90;;;;;;;9.66;52.81;99958.00;1756342;81;21046;-65
2023/01/06 08:43:40;;;;;;;6.65;4.70;;;;;;;9.60;51.99;99964.81;1757731;81;21086;-65
2023/01/06 08:46:08;;;;;;;7.53;4.75;;;;;;;9.40;51.91;99968.98;1757671;81;21042;-65
2023/01/06 08:48:34;;;;;;;6.47;4.58;;;;;;;9.71;52.67;99969.23;1757697;80;21251;-64
2023/01/06 08:51:07;;;;;;;7.03;5.20;;;;;;;9.76;51.69;99976.95;1758015;80;21136;-64
2023/01/06 08:53:34;;;;;;;7.45;4.83;;;;;;;9.62;52.17;99978.77;1757849;81;21050;-65
2023/01/06 08:56:00;;;;;;;7.37;4.78;;;;;;;9.87;51.63;99982.22;1757989;81;21106;-64
2023/01/06 08:58:27;;;;;;;6.30;4.47;;;;;;;9.47;52.21;99981.92;1757984;81;21109;-65
2023/01/06 09:00:53;;;;;;;6.85;4.53;;;;;;;9.63;51.90;99990.98;1758140;80;21343;-65
2023/01/06 09:03:20;;;;;;;6.37;4.78;;;;;;;9.60;52.04;99997.21;1757757;81;21669;-66
2023/01/06 09:05:54;;;;;;;6.30;4.92;;;;;;;9.92;51.48;99999.62;1778106;80;21043;-65
2023/01/06 09:08:21;;;;;;;7.37;4.85;;;;;;;9.78;52.25;99994.39;1786304;80;21073;-65
2023/01/06 09:10:48;;;;;;;7.03;4.95;;;;;;;9.48;52.74;99992.82;1786482;80;21065;-64
2023/01/06 09:13:15;;;;;;;7.45;4.97;;;;;;;9.83;52.41;99993.77;1786293;80;21553;-65
2023/01/06 09:15:42;;;;;;;9.13;5.85;;;;;;;9.47;53.02;100005.58;1785973;80;21058;-65
2023/01/06 09:18:09;;;;;;;8.60;6.35;;;;;;;9.55;53.12;99998.30;1786139;80;21692;-65
2023/01/06 09:20:36;;;;;;;10.65;7.30;;;;;;;9.23;53.76;100002.87;1786224;80;21050;-65
2023/01/06 09:23:03;;;;;;;14.07;9.28;;;;;;;9.41;53.56;100011.45;1786294;80;21518;-65
2023/01/06 09:25:29;;;;;;;13.53;9.43;;;;;;;8.88;54.49;100008.84;1786398;80;21109;-65
2023/01/06 09:27:58;;;;;;;16.00;10.23;;;;;;;8.97;54.83;100012.48;1786014;78;21057;-66
2023/01/06 09:30:24;;;;;;;18.73;10.88;;;;;;;8.54;54.77;100015.12;1786335;80;21112;-64
2023/01/06 09:32:50;;;;;;;15.80;10.58;;;;;;;8.57;55.06;100013.71;1786285;80;21090;-65
2023/01/06 09:35:17;;;;;;;17.62;11.48;;;;;;;8.43;55.03;100022.47;1786517;80;21058;-65
2023/01/06 09:37:44;;;;;;;15.30;10.60;;;;;;;8.53;54.68;100020.41;1786715;80;21778;-65
2023/01/06 09:40:18;;;;;;;19.42;12.37;;;;;;;8.92;54.50;100028.81;1786333;80;21093;-65
2023/01/06 09:45:21;;;;;;;20.80;12.03;;;;;;;5.55;62.84;100044.54;1796575;79;23116;-65
2023/01/06 09:47:55;;;;;;;21.55;12.58;;;;;;;7.53;57.97;100031.08;1756536;80;22127;-65
2023/01/06 09:50:39;;;;;;;18.05;11.40;;;;;;;7.06;58.21;100040.97;1737746;81;21868;-65
2023/01/06 09:53:21;;;;;;;16.60;10.98;;;;;;;7.72;57.31;100044.09;1756615;81;20970;-64
2023/01/06 09:55:56;;;;;;;20.25;11.33;;;;;;;8.60;55.16;100031.13;1756219;81;21032;-64
2023/01/06 09:58:41;;;;;;;20.20;12.03;;;;;;;7.35;56.83;100045.04;1756447;81;21100;-66
2023/01/06 10:01:12;;;;;;;17.67;10.78;;;;;;;7.40;57.27;100041.45;1756295;81;21088;-64
2023/01/06 12:32:07;;;;;;;6.43;3.67;;;;;;;2.22;79.29;100288.97;1869470;76;23306;-65
2023/01/06 12:34:39;;;;;;;5.33;3.62;;;;;;;2.79;76.37;100295.84;1825788;78;21593;-65
2023/01/06 12:37:26;;;;;;;5.42;4.00;;;;;;;3.21;73.15;100300.45;1789160;80;21278;-66
2023/01/06 12:40:27;;;;;;;5.30;3.30;;;;;;;3.07;72.13;100301.81;1779862;80;21027;-66
2023/01/06 12:43:19;;;;;;;4.35;3.47;;;;;;;3.74;68.67;100303.20;1789139;80;20981;-66
2023/01/06 12:46:13;;;;;;;6.53;3.33;;;;;;;3.94;66.19;100304.39;1789132;80;21032;-65
2023/01/06 12:48:54;;;;;;;7.50;3.45;;;;;;;3.85;66.51;100312.27;1789375;80;21098;-67
2023/01/06 12:51:35;;;;;;;6.00;3.45;;;;;;;4.32;64.92;100322.76;1789284;80;21306;-65
2023/01/06 12:54:16;;;;;;;5.85;3.27;;;;;;;3.64;63.28;100331.50;1789251;80;21543;-66
2023/01/06 12:57:06;;;;;;;;;;;;;;;4.01;63.02;100339.09;1790169;79;21044;-66
2023/01/06 12:59:53;;;;;;;4.45;2.85;;;;;;;4.05;62.84;100345.98;1771938;81;20212;-65
2023/01/06 13:02:49;;;;;;;3.98;3.00;;;;;;;4.25;61.82;100348.02;1772077;80;21662;-65
2023/01/06 13:05:51;;;;;;;4.90;3.22;;;;;;;4.49;60.79;100361.75;1773457;80;21156;-65
2023/01/06 13:08:46;;;;;;;4.67;3.12;;;;;;;4.31;61.93;100366.23;1773988;79;21056;-66
2023/01/06 13:11:42;;;;;;;4.30;3.27;;;;;;;4.72;60.19;100373.29;1758241;81;21516;-66
2023/01/06 13:14:20;;;;;;;4.30;2.90;;;;;;;4.89;60.05;100382.25;1727673;81;21122;-66
2023/01/06 13:16:58;;;;;;;3.65;3.22;;;;;;;4.92;57.75;100385.67;1758377;81;21500;-66
2023/01/06 13:19:48;;;;;;;5.08;2.83;;;;;;;5.11;58.07;100393.32;1758140;81;21154;-65
2023/01/06 13:22:26;;;;;;;4.25;2.87;;;;;;;5.35;57.12;100402.66;1755310;80;23013;-66
2023/01/06 13:25:20;;;;;;;3.80;2.80;;;;;;;4.95;56.56;100407.86;1725166;83;21076;-66
2023/01/06 13:28:21;;;;;;;5.12;2.83;;;;;;;4.81;56.27;100409.29;1726342;83;21035;-65
2023/01/06 13:31:14;;;;;;;4.58;3.65;;;;;;;5.14;56.62;100417.67;1725937;83;21524;-66
2023/01/06 13:34:33;;;;;;;5.53;3.52;;;;;;;4.97;55.73;100418.26;1722154;83;21317;-66
2023/01/06 13:37:25;;;;;;;6.00;3.33;;;;;;;4.62;56.07;100425.55;1753720;81;21572;-66
2023/01/06 13:40:03;;;;;;;5.40;3.33;;;;;;;5.01;56.18;100427.80;1733361;82;21071;-65
2023/01/06 13:42:38;;;;;;;6.20;3.12;;;;;;;5.37;56.20;100430.92;1732874;82;21008;-66
2023/01/06 13:45:09;;;;;;;6.12;4.22;;;;;;;5.41;54.92;100439.16;1721626;82;21052;-65
2023/01/06 13:47:36;;;;;;;4.95;3.20;;;;;;;5.11;54.11;100441.62;1732917;82;25676;-66
2023/01/06 13:50:05;;;;;;;5.90;3.35;;;;;;;5.39;54.81;100440.92;1709921;82;21091;-65
2023/01/06 13:52:31;;;;;;;4.75;3.05;;;;;;;5.51;54.53;100435.55;1710061;82;21043;-66
2023/01/06 13:55:25;;;;;;;4.42;3.12;;;;;;;5.51;53.69;100448.61;1686166;82;21031;-66
2023/01/06 13:57:51;;;;;;;3.58;2.87;;;;;;;5.04;53.80;100451.28;1732733;82;21489;-66
2023/01/06 14:00:23;;;;;;;5.12;3.27;;;;;;;5.26;53.91;100451.48;1724292;83;21104;-66
2023/01/06 14:02:58;;;;;;;4.75;3.35;;;;;;;5.10;53.75;100446.43;1726855;83;21544;-66
2023/01/06 14:05:32;;;;;;;5.85;3.20;;;;;;;5.09;53.92;100444.27;1736851;82;21579;-66
2023/01/06 14:08:01;;;;;;;5.33;3.08;;;;;;;5.42;54.27;100448.72;1746368;82;21064;-66
2023/01/06 14:10:41;;;;;;;4.00;3.15;;;;;;;5.16;53.83;100451.61;1737750;81;21559;-65
2023/01/06 14:13:38;;;;;;;5.28;3.62;;;;;;;5.04;53.33;100452.59;1746640;82;21185;-65
2023/01/06 14:16:10;;;;;;;6.40;3.70;;;;;;;5.04;54.13;100456.05;1754850;81;21024;-65
2023/01/06 14:18:53;;;;;;;5.28;3.08;;;;;;;4.82;54.79;100455.37;1755045;81;21023;-66
2023/01/06 14:21:29;;;;;;;5.08;3.47;;;;;;;4.98;54.01;100459.16;1753185;81;21039;-66
2023/01/06 14:24:07;;;;;;;4.75;3.65;;;;;;;4.87;53.40;100470.13;1754704;81;21011;-66
2023/01/06 14:26:59;;;;;;;5.33;3.50;;;;;;;4.96;52.59;100466.13;1754936;81;21266;-67
2023/01/06 14:29:44;;;;;;;5.50;3.37;;;;;;;4.78;52.26;100474.53;1755224;81;21016;-65
2023/01/06 14:32:19;;;;;;;7.83;3.77;;;;;;;4.95;51.78;100471.80;1750446;81;21048;-67
2023/01/06 14:35:02;;;;;;;5.08;3.50;;;;;;;4.91;53.15;100491.41;1750536;82;21047;-66